Weather observations for the past three days for
Watertown, Watertown Municipal Airport
Imperial (Metric)
Date Time (cdt) Wind (mph) Vis. (mi.) Weather Sky Cond. Temperature (ºF) Relative Humidity Wind Chill (°F) Heat Index (°F) Pressure Precipitation (in)
Air Dwpt 6 hour altimeter (in) sea level (mb) 1 hr 3 hr 6 hr
Max. Min.
06 04:53 SE 7 10.00 Overcast OVC006 75 73 94% 73 29.99 1013.8
06 03:53 SE 7 10.00 Overcast OVC008 75 73 94% 73 29.99 1013.9
06 02:53 SE 6 10.00 Mostly Cloudy BKN011 73.9 71.1 91% 29.97 1013.5
06 01:53 SE 8 10.00 Fair CLR 73.9 70 88% 29.97 1013.5
06 00:53 SE 9 10.00 Fair CLR 73.9 69.1 84.9 73.9 85% 29.99 1014.0
05 23:53 SE 12 10.00 Fair CLR 73.9 68 82% 29.99 1014.2
05 22:53 SE 8 10.00 Fair CLR 75 66 74% 76 29.99 1014.3
05 21:53 SE 8 10.00 Fair CLR 78.1 66 67% 80 29.98 1013.8
05 20:53 SE 6 10.00 Fair CLR 78.1 69.1 74% 80 29.96 1013.4
05 18:53 S 8 10.00 Fair CLR 84.9 63 90 84.9 48% 86 29.95 1012.7
05 17:53 SE 13 G 23 10.00 Fair CLR 89.1 62.1 41% 89 29.93 1011.9
05 16:53 SE 10 G 23 10.00 Fair CLR 89.1 64 43% 90 29.92 1011.8
05 15:53 E 12 G 21 10.00 Fair CLR 89.1 64 43% 90 29.94 1012.3
05 12:53 SE 10 10.00 Fair CLR 86 60.1 86 73 42% 86 29.95 1012.8
05 11:53 SE 13 10.00 Fair CLR 82.9 59 44% 83 29.97 1013.4
05 10:53 SE 13 G 22 10.00 Fair CLR 80.1 57.9 47% 81 29.98 1013.9
05 09:53 SE 13 G 23 10.00 Fair CLR 77 57.9 52% 79 29.96 1013.3
05 08:53 S 14 G 26 10.00 Fair CLR 73.9 57.9 57% 29.96 1013.5
05 07:53 S 14 10.00 Fair CLR 73.9 59 60% 29.98 1013.9
05 06:53 S 22 G 35 10.00 A Few Clouds and Breezy FEW120 73 66.9 73.9 72 81% 29.92 1011.7
05 05:53 S 12 G 20 10.00 Partly Cloudy FEW065 SCT100 SCT120 73 70 90% 30 1014.4
05 04:53 SE 5 10.00 Fair CLR 72 69.1 91% 29.95 1012.7
05 02:53 SE 7 10.00 Fair CLR 73 66.9 81% 29.94 1012.2
05 01:53 SE 10 G 20 10.00 Fair CLR 73 70 90% 29.95 1012.8
05 00:53 E 8 10.00 Fair CLR 73 70 82 72 90% 29.98 1013.8
04 23:53 E 8 10.00 Fair CLR 73.9 69.1 85% 29.97 1013.5
04 22:53 E 7 10.00 Fair CLR 72 68 87% 29.96 1013.3
04 21:53 E 7 10.00 Fair CLR 73.9 68 82% 29.95 1013.0
04 20:53 E 7 10.00 Fair CLR 75 66.9 76% 76 29.93 1012.4
04 19:53 E 6 10.00 Fair CLR 78.1 68 71% 80 29.93 1012.7
04 18:53 E 10 10.00 Fair CLR 82 66.9 89.1 82 60% 85 29.93 1012.7
04 17:53 E 12 10.00 Fair CLR 86 64.9 49% 88 29.92 1012.2
04 16:53 E 9 10.00 Fair CLR 86 63 46% 87 29.92 1012.2
04 15:53 NE 12 10.00 Fair CLR 87.1 62.1 43% 88 29.93 1012.4
04 14:53 NE 9 10.00 Fair CLR 88 61 40% 88 29.94 1012.4
04 13:53 E 10 10.00 Fair CLR 87.1 61 42% 87 29.94 1012.4
04 12:53 NE 13 10.00 Fair CLR 84.9 62.1 86 62.1 46% 85 29.95 1012.7
04 11:53 E 10 10.00 Fair CLR 82 66 58% 84 29.93 1012.3
04 10:53 E 9 10.00 Fair CLR 81 66 61% 83 29.93 1012.2
04 09:53 E 8 10.00 Fair CLR 79 66.9 67% 81 29.91 1011.5
04 08:53 Calm 10.00 Fair CLR 71.1 66 84% 29.9 1011.5
04 07:53 Calm 9.00 Fair CLR 64 63 96% 29.89 1011.3
04 06:53 N 3 10.00 Fair CLR 62.1 62.1 72 61 100% 29.88 1010.5
04 05:53 N 3 10.00 Fair CLR 63 62.1 97% 29.86 1009.9
04 04:53 NE 5 5.00 Fog/Mist CLR 63 62.1 97% 29.86 1009.8
04 03:53 N 3 0.25 Fog VV002 64 64 100% 29.85 1009.4
04 02:53 Calm 10.00 Fair CLR 66.9 66 97% 29.84 1009.1
04 01:53 Calm 10.00 Fair CLR 68 66 93% 29.82 1008.4
04 00:53 SE 5 10.00 Fair CLR 71.1 66.9 89.1 69.1 87% 29.81 1008.0
03 23:53 S 5 10.00 Fair CLR 72 68 87% 29.81 1007.8
03 22:53 S 6 10.00 Fair CLR 73.9 69.1 85% 29.8 1007.6
03 21:53 S 7 10.00 Fair CLR 77 69.1 77% 79 29.78 1006.9
03 20:53 S 8 10.00 Fair CLR 75.9 68 77% 77 29.76 1006.5
03 19:53 S 7 10.00 Fair CLR 82 68 63% 85 29.75 1005.9
03 18:53 S 10 10.00 Fair CLR 89.1 66 93 89.1 47% 92 29.73 1005.3
03 17:53 S 10 10.00 Fair CLR 91.9 66.9 44% 95 29.72 1004.8
03 16:53 S 14 10.00 Fair CLR 91.9 69.1 47% 97 29.72 1004.8
03 15:53 S 13 10.00 Fair CLR 93 71.1 49% 100 29.71 1004.5
03 14:53 S 14 G 20 10.00 Fair CLR 91 72 54% 99 29.72 1005.0
03 13:53 S 13 10.00 Fair CLR 91 72 54% 99 29.72 1004.7
03 12:53 SE 8 10.00 Fair CLR 90 71.1 90 70 54% 96 29.72 1004.7
03 11:53 SE 8 0.00 NULL NULL 88 70 55% 93 29.74 1005.7
03 10:53 S 7 10.00 Fair CLR 82.9 69.1 63% 87 29.76 1006.4
03 09:53 S 8 10.00 Fair CLR 80.1 68 67% 83 29.75 1006.2
03 08:53 SE 9 10.00 Fair CLR 75 68 79% 76 29.76 1006.5
03 07:53 SE 6 10.00 Fair CLR 73 66.9 81% 29.75 1006.2
03 06:53 E 3 10.00 Fair CLR 70 66.9 72 70 90% 29.76 1006.4
03 05:53 E 5 10.00 Fair CLR 70 68 93% 29.76 1006.5
Date Time (cdt) Wind (mph) Vis. (mi.) Weather Sky Cond. Air Dwpt Max. Min. Relative Humidity Wind Chill (°F) Heat Index (°F) altimeter (in) sea level (mb) 1 hr 3 hr 6 hr
6 hour
Temperature (ºF) Pressure Precipitation (in)